Time;durP1;ratioP1;P1;durP2;ratioP2;P2;SDS_P1;SDS_P2;PMS_P1;PMS_P2;Temp;Humidity;BMP_temperature;BMP_pressure;BME280_temperature;BME280_humidity;BME280_pressure;Samples;Min_cycle;Max_cycle;Signal;HPM_P1;HPM_P2
2023/05/20 00:00:17;;;;;;;6.97;3.10;;;;;;;12.61;63.47;102313.59;5040033;28;20027;-84
2023/05/20 00:02:42;;;;;;;7.35;2.85;;;;;;;12.54;63.64;102296.25;5039257;28;20108;-85
2023/05/20 00:05:08;;;;;;;8.45;3.20;;;;;;;12.53;63.75;102305.22;5039225;28;20031;-85
2023/05/20 00:07:33;;;;;;;6.82;3.30;;;;;;;12.51;63.90;102299.97;5038830;28;20021;-85
2023/05/20 00:09:59;;;;;;;8.25;3.08;;;;;;;12.46;64.79;102288.75;5038766;28;20060;-84
2023/05/20 00:12:24;;;;;;;8.48;3.38;;;;;;;12.46;64.41;102295.88;5034028;28;20074;-84
2023/05/20 00:14:49;;;;;;;7.13;3.42;;;;;;;12.43;65.10;102294.25;5038995;28;20033;-84
2023/05/20 00:17:15;;;;;;;6.80;3.28;;;;;;;12.40;65.67;102300.59;5038679;28;20037;-85
2023/05/20 00:19:40;;;;;;;7.63;3.50;;;;;;;12.36;65.68;102299.09;5039037;28;20085;-85
2023/05/20 00:22:05;;;;;;;7.18;3.10;;;;;;;12.34;66.21;102301.00;5037936;28;20430;-85
2023/05/20 00:24:31;;;;;;;11.75;3.63;;;;;;;12.33;66.24;102304.59;5035860;28;20085;-85
2023/05/20 00:26:56;;;;;;;12.23;3.55;;;;;;;12.31;66.69;102309.19;5038368;28;20025;-85
2023/05/20 00:29:21;;;;;;;10.83;3.60;;;;;;;12.28;66.76;102300.53;5031792;28;20042;-85
2023/05/20 00:31:47;;;;;;;8.77;3.75;;;;;;;12.26;67.37;102303.28;5026091;28;20363;-86
2023/05/20 00:34:12;;;;;;;4.95;3.17;;;;;;;12.19;67.36;102288.59;5039153;28;20037;-85
2023/05/20 00:36:37;;;;;;;6.95;3.20;;;;;;;12.19;67.67;102288.59;5038247;28;20053;-85
2023/05/20 00:39:03;;;;;;;11.93;3.35;;;;;;;12.18;67.97;102285.09;5036432;28;20033;-85
2023/05/20 00:41:28;;;;;;;5.13;3.28;;;;;;;12.15;68.19;102293.25;5039297;28;20013;-86
2023/05/20 00:43:54;;;;;;;7.40;3.45;;;;;;;12.08;68.46;102275.94;5038616;28;20017;-85
2023/05/20 00:46:20;;;;;;;6.57;3.13;;;;;;;12.08;68.68;102296.41;5031751;28;20077;-85
2023/05/20 00:48:46;;;;;;;10.18;4.00;;;;;;;12.06;68.70;102287.63;5030636;28;20071;-85
2023/05/20 00:51:13;;;;;;;7.00;3.47;;;;;;;12.00;69.04;102287.03;5039863;28;20033;-85
2023/05/20 00:53:38;;;;;;;7.72;3.85;;;;;;;11.90;68.79;102283.19;5041174;28;20051;-84
2023/05/20 00:56:04;;;;;;;9.27;3.72;;;;;;;11.95;69.72;102290.94;5039489;28;20033;-85
2023/05/20 00:58:30;;;;;;;7.97;3.42;;;;;;;11.84;69.54;102281.75;5038395;28;20021;-85
2023/05/20 01:00:56;;;;;;;9.70;3.67;;;;;;;11.90;69.72;102279.66;5040345;28;20400;-85
2023/05/20 01:03:21;;;;;;;10.77;4.00;;;;;;;11.84;70.08;102280.91;5034951;28;20029;-85
2023/05/20 01:05:46;;;;;;;6.57;3.50;;;;;;;11.78;70.45;102282.09;5035069;28;20029;-86
2023/05/20 01:08:12;;;;;;;9.60;3.70;;;;;;;11.76;70.38;102278.69;5039959;28;20030;-85
2023/05/20 01:10:41;;;;;;;9.15;4.25;;;;;;;11.73;70.58;102278.84;5039674;28;20492;-85
2023/05/20 01:13:11;;;;;;;10.43;3.65;;;;;;;11.67;70.93;102276.53;5043474;28;20032;-86
2023/05/20 01:15:39;;;;;;;8.98;4.10;;;;;;;11.66;71.44;102282.81;5028537;28;20028;-85
2023/05/20 01:18:07;;;;;;;10.23;4.22;;;;;;;11.60;71.79;102273.38;5031700;28;20057;-85
2023/05/20 01:20:34;;;;;;;10.60;4.13;;;;;;;11.63;71.42;102281.19;5040897;28;20111;-85
2023/05/20 01:23:00;;;;;;;11.43;4.30;;;;;;;11.61;71.55;102277.75;5037593;28;20059;-85
2023/05/20 01:25:25;;;;;;;10.38;3.97;;;;;;;11.59;71.82;102279.66;5043718;28;20032;-85
2023/05/20 01:27:53;;;;;;;6.50;3.85;;;;;;;11.56;72.30;102276.34;5043844;28;20022;-85
2023/05/20 01:30:19;;;;;;;8.57;4.07;;;;;;;11.53;72.34;102282.66;5044168;28;20033;-85
2023/05/20 01:32:49;;;;;;;10.13;4.07;;;;;;;11.44;72.62;102270.75;5043933;28;20025;-85
2023/05/20 01:35:16;;;;;;;11.27;4.25;;;;;;;11.48;72.38;102276.75;5046252;28;20030;-85
2023/05/20 01:37:42;;;;;;;7.03;4.20;;;;;;;11.39;73.03;102267.50;5040950;28;20415;-85
2023/05/20 01:40:11;;;;;;;7.00;3.80;;;;;;;11.40;73.09;102274.53;5043512;28;20056;-84
2023/05/20 01:42:38;;;;;;;10.95;4.22;;;;;;;11.28;73.39;102256.63;5043479;28;20033;-86
2023/05/20 01:45:04;;;;;;;8.15;4.40;;;;;;;11.33;73.54;102267.00;5044195;28;20021;-86
2023/05/20 01:47:30;;;;;;;8.95;4.25;;;;;;;11.25;73.43;102256.78;5044464;28;20030;-85
2023/05/20 01:49:55;;;;;;;10.85;4.32;;;;;;;11.25;74.01;102268.28;5043694;28;20032;-85
2023/05/20 01:52:21;;;;;;;6.30;4.10;;;;;;;11.25;74.45;102264.78;5044330;28;20026;-85
2023/05/20 01:54:49;;;;;;;10.75;4.35;;;;;;;11.20;74.09;102257.03;5045064;28;20025;-85
2023/05/20 01:57:20;;;;;;;7.25;4.15;;;;;;;11.16;74.66;102263.50;5044306;28;20033;-85
2023/05/20 01:59:46;;;;;;;10.40;4.20;;;;;;;11.17;74.70;102261.69;5044621;28;20021;-86
2023/05/20 02:02:11;;;;;;;9.82;4.13;;;;;;;11.11;75.04;102257.59;5041053;28;20033;-84
2023/05/20 02:04:37;;;;;;;10.07;4.30;;;;;;;11.09;75.79;102259.44;5033738;28;20017;-85
2023/05/20 02:07:02;;;;;;;9.00;4.47;;;;;;;10.94;75.35;102237.22;5038603;28;20033;-85
2023/05/20 02:09:27;;;;;;;9.85;4.63;;;;;;;11.07;75.20;102261.34;5036401;28;20093;-85
2023/05/20 02:11:53;;;;;;;12.27;4.72;;;;;;;11.05;75.66;102256.09;5040187;28;20466;-86
2023/05/20 02:14:18;;;;;;;8.82;4.30;;;;;;;11.04;75.63;102261.50;5032725;28;20030;-86
2023/05/20 02:16:45;;;;;;;10.27;4.80;;;;;;;10.99;76.29;102256.47;5041821;28;20017;-86
2023/05/20 02:19:11;;;;;;;8.23;4.60;;;;;;;10.95;76.32;102252.25;5046737;28;20045;-84
2023/05/20 02:21:40;;;;;;;11.52;4.60;;;;;;;10.91;76.56;102256.03;5059450;28;20048;-84
2023/05/20 02:24:06;;;;;;;10.25;4.70;;;;;;;10.90;76.87;102264.94;5060472;28;20073;-84
2023/05/20 02:26:32;;;;;;;8.25;4.50;;;;;;;10.86;77.23;102256.28;5056855;28;20017;-84
2023/05/20 02:28:57;;;;;;;9.68;4.05;;;;;;;10.80;76.90;102242.47;5057207;28;20036;-84
2023/05/20 02:31:22;;;;;;;7.50;4.65;;;;;;;10.83;77.43;102247.63;5046006;28;20030;-83
2023/05/20 02:33:47;;;;;;;8.48;4.32;;;;;;;10.83;77.06;102251.13;5053940;28;20025;-84
2023/05/20 02:36:13;;;;;;;8.05;4.38;;;;;;;10.80;77.57;102245.13;5049064;28;20313;-85
2023/05/20 02:38:38;;;;;;;11.52;4.95;;;;;;;10.80;78.09;102243.31;5050450;28;20044;-84
2023/05/20 02:41:03;;;;;;;9.63;4.80;;;;;;;10.78;77.83;102247.03;5046617;28;20033;-83
2023/05/20 02:43:30;;;;;;;10.57;4.68;;;;;;;10.77;77.74;102247.97;5045978;28;20033;-85
2023/05/20 02:45:56;;;;;;;9.57;4.97;;;;;;;10.61;77.70;102224.88;5046418;28;20021;-86
2023/05/20 02:48:21;;;;;;;10.45;4.88;;;;;;;10.73;78.59;102249.94;5053702;28;20026;-85
2023/05/20 02:50:46;;;;;;;10.15;4.90;;;;;;;10.69;78.44;102241.28;5044966;28;20025;-85
2023/05/20 02:53:12;;;;;;;10.00;4.93;;;;;;;10.67;78.65;102242.28;5046749;28;20061;-85
2023/05/20 02:55:39;;;;;;;9.20;4.60;;;;;;;10.66;78.79;102241.44;5041330;28;20031;-84
2023/05/20 02:58:04;;;;;;;8.80;4.75;;;;;;;10.61;79.20;102240.84;5045672;28;20031;-84
2023/05/20 03:00:30;;;;;;;9.00;4.80;;;;;;;10.64;79.02;102245.09;5044980;28;20440;-85
2023/05/20 03:02:56;;;;;;;11.93;5.35;;;;;;;10.63;79.29;102240.75;5036202;28;20034;-85
2023/05/20 03:05:21;;;;;;;9.57;5.63;;;;;;;10.60;79.39;102239.09;5042455;28;20032;-83
2023/05/20 03:07:47;;;;;;;11.85;4.97;;;;;;;10.61;79.45;102240.84;5045119;28;20025;-84
2023/05/20 03:10:13;;;;;;;10.43;4.95;;;;;;;10.59;79.70;102234.75;5043371;28;20031;-84
2023/05/20 03:12:38;;;;;;;8.43;4.40;;;;;;;10.57;79.98;102233.94;5043716;28;20084;-84
2023/05/20 03:15:04;;;;;;;8.60;4.95;;;;;;;10.59;79.75;102244.50;5045058;28;20028;-84
2023/05/20 03:17:30;;;;;;;9.52;4.85;;;;;;;10.59;79.51;102239.19;5042708;28;20049;-84
2023/05/20 03:19:55;;;;;;;8.88;4.82;;;;;;;10.57;80.45;102247.22;5042014;28;20021;-84
2023/05/20 03:22:20;;;;;;;8.52;4.65;;;;;;;10.55;80.19;102246.47;5044221;28;20089;-84
2023/05/20 03:24:47;;;;;;;12.07;5.65;;;;;;;10.50;80.38;102245.84;5044771;28;20022;-85
2023/05/20 03:27:12;;;;;;;8.30;4.93;;;;;;;10.47;80.99;102246.88;5034823;28;20029;-85
2023/05/20 03:29:37;;;;;;;9.57;4.82;;;;;;;10.48;80.03;102245.94;5040386;28;20040;-86
2023/05/20 03:32:03;;;;;;;11.48;5.15;;;;;;;10.48;80.68;102245.94;5045512;28;20037;-85
2023/05/20 03:34:29;;;;;;;11.60;5.20;;;;;;;10.47;80.97;102246.03;5043044;28;20047;-85
2023/05/20 03:36:56;;;;;;;9.02;5.15;;;;;;;10.45;81.52;102247.91;5043129;28;20068;-85
2023/05/20 03:39:21;;;;;;;6.88;4.57;;;;;;;10.38;81.72;102231.44;5043123;28;20025;-85
2023/05/20 03:41:46;;;;;;;9.38;4.90;;;;;;;10.43;81.26;102250.66;5042547;28;20025;-85
2023/05/20 03:44:11;;;;;;;10.67;5.13;;;;;;;10.39;81.71;102245.56;5045527;28;20052;-85
2023/05/20 03:46:37;;;;;;;9.65;4.60;;;;;;;10.38;80.82;102238.56;5046018;28;20303;-85
2023/05/20 03:49:02;;;;;;;9.95;4.72;;;;;;;10.34;82.12;102240.50;5046431;28;20041;-85
2023/05/20 03:51:28;;;;;;;11.43;4.90;;;;;;;10.32;81.87;102237.06;5044403;28;20025;-85
2023/05/20 03:53:53;;;;;;;9.85;5.18;;;;;;;10.32;81.79;102237.06;5043742;28;21030;-85
2023/05/20 03:56:18;;;;;;;13.90;5.57;;;;;;;10.28;82.33;102236.34;5044384;28;20029;-85
2023/05/20 03:58:44;;;;;;;12.68;5.25;;;;;;;10.29;82.46;102237.19;5045147;28;20041;-85
2023/05/20 04:01:12;;;;;;;9.02;4.93;;;;;;;10.30;82.67;102236.28;5044465;28;20064;-85
2023/05/20 04:03:37;;;;;;;8.65;5.32;;;;;;;10.27;83.43;102236.44;5042469;28;20104;-84
2023/05/20 04:06:02;;;;;;;12.10;5.22;;;;;;;10.29;82.51;102242.50;5052724;28;20040;-84
2023/05/20 04:08:28;;;;;;;9.57;5.22;;;;;;;10.26;82.72;102234.69;5043777;28;20104;-85
2023/05/20 04:10:56;;;;;;;12.38;5.55;;;;;;;10.24;83.26;102236.59;5043274;28;20033;-85
2023/05/20 04:13:24;;;;;;;12.70;5.07;;;;;;;10.11;83.93;102223.13;5059997;28;20029;-85
2023/05/20 04:15:50;;;;;;;9.30;5.13;;;;;;;10.21;84.05;102239.41;5054782;28;20018;-85
2023/05/20 04:18:15;;;;;;;7.43;5.05;;;;;;;10.25;83.81;102246.28;5047496;28;20045;-86
2023/05/20 04:20:41;;;;;;;10.35;5.15;;;;;;;10.18;83.82;102233.31;5049529;28;20055;-84
2023/05/20 04:23:06;;;;;;;11.45;5.30;;;;;;;10.23;83.98;102248.16;5047712;28;20032;-84
2023/05/20 04:25:32;;;;;;;9.57;5.05;;;;;;;10.24;85.08;102247.22;5044613;28;20044;-84
2023/05/20 04:27:58;;;;;;;8.82;5.15;;;;;;;10.20;85.02;102243.88;5051115;28;20036;-85
2023/05/20 04:30:24;;;;;;;8.82;5.20;;;;;;;10.16;85.13;102231.69;5051333;28;20025;-84
2023/05/20 04:32:50;;;;;;;12.18;5.60;;;;;;;10.26;84.75;102253.28;5052017;28;20036;-84
2023/05/20 04:35:16;;;;;;;9.95;5.20;;;;;;;10.27;85.19;102247.91;5054821;28;20053;-84
2023/05/20 04:37:43;;;;;;;11.77;5.70;;;;;;;10.28;85.42;102246.13;5055719;28;20033;-85
2023/05/20 04:40:09;;;;;;;11.40;5.55;;;;;;;10.32;85.72;102242.38;5051624;28;20053;-85
2023/05/20 04:42:35;;;;;;;11.30;6.10;;;;;;;10.25;86.04;102228.53;5050805;28;20060;-83
2023/05/20 04:45:04;;;;;;;11.93;5.47;;;;;;;10.36;86.12;102244.81;5055040;28;20096;-84
2023/05/20 04:47:31;;;;;;;12.05;6.25;;;;;;;10.30;86.02;102237.13;5053354;28;20026;-85
2023/05/20 04:49:56;;;;;;;11.23;5.45;;;;;;;10.43;86.12;102244.47;5062035;28;20026;-83
2023/05/20 04:52:25;;;;;;;11.25;5.40;;;;;;;10.45;86.41;102251.41;5046945;28;20047;-84
2023/05/20 04:54:56;;;;;;;10.23;5.60;;;;;;;10.51;86.22;102251.09;5042549;28;20040;-84
2023/05/20 04:57:21;;;;;;;8.50;5.63;;;;;;;10.55;86.37;102244.66;5043963;28;20100;-84
2023/05/20 04:59:47;;;;;;;12.48;5.53;;;;;;;10.64;86.23;102240.66;5043979;28;20458;-85
2023/05/20 05:02:13;;;;;;;11.88;5.80;;;;;;;10.61;86.16;102237.28;5030453;28;20033;-84
2023/05/20 05:04:39;;;;;;;10.05;5.05;;;;;;;10.72;85.69;102245.53;5044789;28;20068;-84
2023/05/20 05:07:04;;;;;;;9.25;5.40;;;;;;;10.74;85.83;102235.69;5040329;28;20029;-85
2023/05/20 05:09:30;;;;;;;12.70;5.43;;;;;;;10.80;85.53;102231.84;5042685;28;20025;-85
2023/05/20 05:11:55;;;;;;;10.98;5.38;;;;;;;10.86;85.89;102229.72;5043531;28;20052;-85
2023/05/20 05:14:21;;;;;;;9.20;5.38;;;;;;;10.89;85.58;102234.84;5043503;28;20435;-84
2023/05/20 05:16:46;;;;;;;6.68;5.38;;;;;;;10.96;85.39;102223.84;5042574;28;20025;-85
2023/05/20 05:19:12;;;;;;;11.48;5.35;;;;;;;11.02;85.96;102221.72;5043380;28;20056;-85
2023/05/20 05:21:37;;;;;;;9.27;5.93;;;;;;;11.08;86.24;102220.53;5042912;28;20037;-86
2023/05/20 05:24:03;;;;;;;11.23;5.45;;;;;;;11.20;85.61;102226.94;5043469;28;20021;-85
2023/05/20 05:26:28;;;;;;;9.40;5.40;;;;;;;11.27;85.05;102221.19;5043582;28;20046;-85
2023/05/20 05:28:54;;;;;;;11.75;5.78;;;;;;;11.47;84.53;102228.03;5041692;28;20063;-84
2023/05/20 05:31:19;;;;;;;9.98;5.22;;;;;;;11.66;84.01;102222.47;5040336;28;20427;-85
2023/05/20 05:33:44;;;;;;;10.77;5.68;;;;;;;11.85;82.95;102232.00;5042100;28;20029;-84
2023/05/20 05:36:27;;;;;;;10.65;5.47;;;;;;;11.96;81.98;102216.28;5040112;28;20020;-84
2023/05/20 05:38:53;;;;;;;9.13;5.25;;;;;;;12.25;82.15;102221.63;5039986;28;20036;-85
2023/05/20 05:41:18;;;;;;;8.60;4.80;;;;;;;12.40;81.64;102212.69;5040203;28;20033;-84
2023/05/20 05:43:43;;;;;;;6.03;5.00;;;;;;;12.59;80.15;102214.22;5040478;28;20022;-84
2023/05/20 05:46:08;;;;;;;11.82;5.50;;;;;;;12.81;79.07;102221.69;5040490;28;20607;-85
2023/05/20 05:48:35;;;;;;;9.18;5.03;;;;;;;12.94;77.59;102209.28;5040006;28;20056;-85
2023/05/20 05:51:01;;;;;;;9.27;4.70;;;;;;;13.10;76.61;102209.13;5040590;28;20030;-84
2023/05/20 05:53:26;;;;;;;10.30;4.97;;;;;;;13.28;76.08;102222.22;5040703;28;20092;-85
2023/05/20 05:55:51;;;;;;;12.00;4.72;;;;;;;13.45;75.03;102221.13;5039014;28;20411;-85
2023/05/20 05:58:16;;;;;;;7.10;4.80;;;;;;;13.63;74.38;102219.88;5040894;28;20038;-85
2023/05/20 06:00:42;;;;;;;6.88;4.38;;;;;;;13.77;73.80;102212.75;5044533;28;20029;-84
2023/05/20 06:03:07;;;;;;;14.03;5.27;;;;;;;13.90;72.29;102218.97;5042302;28;20022;-85
2023/05/20 06:05:32;;;;;;;8.32;4.72;;;;;;;14.06;72.87;102214.28;5043011;28;20283;-86
2023/05/20 06:07:58;;;;;;;9.85;4.30;;;;;;;14.19;71.63;102227.63;5051466;28;20064;-86
2023/05/20 06:10:23;;;;;;;8.40;4.28;;;;;;;14.34;71.12;102215.00;5053867;28;20475;-85
2023/05/20 06:12:48;;;;;;;9.93;4.88;;;;;;;14.53;70.08;102224.41;5040339;28;20084;-85
2023/05/20 06:15:14;;;;;;;10.90;4.60;;;;;;;14.61;69.19;102209.53;5039124;28;20024;-85
2023/05/20 06:17:39;;;;;;;8.82;4.57;;;;;;;14.68;69.45;102204.59;5037078;28;20041;-85
2023/05/20 06:20:05;;;;;;;7.95;4.13;;;;;;;14.86;69.10;102214.94;5038192;28;20071;-85
2023/05/20 06:22:31;;;;;;;9.38;4.85;;;;;;;14.95;68.72;102198.19;5039912;28;20026;-85
2023/05/20 06:24:59;;;;;;;5.80;4.13;;;;;;;15.05;68.21;102183.16;5038659;28;20048;-85
2023/05/20 06:27:25;;;;;;;6.95;4.28;;;;;;;15.23;67.78;102198.84;5031127;28;20273;-85
2023/05/20 06:29:50;;;;;;;8.82;4.70;;;;;;;15.30;67.44;102181.34;5038828;28;20049;-86
2023/05/20 06:32:15;;;;;;;7.75;4.07;;;;;;;15.55;67.36;102193.72;5038139;28;20546;-86
2023/05/20 06:34:40;;;;;;;9.15;4.32;;;;;;;15.66;66.92;102188.41;5038287;28;20044;-85
2023/05/20 06:37:06;;;;;;;8.07;3.83;;;;;;;15.86;66.21;102192.25;5036561;28;20329;-86
2023/05/20 06:39:31;;;;;;;7.83;4.23;;;;;;;16.05;64.59;102188.13;5039109;28;20037;-86
2023/05/20 06:41:56;;;;;;;6.93;3.77;;;;;;;16.18;62.02;102188.88;5038453;28;20292;-85
2023/05/20 06:44:21;;;;;;;4.68;3.80;;;;;;;16.28;61.72;102183.63;5036504;28;20291;-85
2023/05/20 06:46:47;;;;;;;7.18;3.90;;;;;;;16.45;61.39;102176.91;5038823;28;20068;-86
2023/05/20 06:49:12;;;;;;;6.35;4.10;;;;;;;16.70;61.60;102181.13;5018205;28;20056;-86
2023/05/20 06:51:37;;;;;;;10.18;4.05;;;;;;;16.85;59.87;102188.94;5033144;28;20685;-85
2023/05/20 06:54:03;;;;;;;8.17;4.43;;;;;;;16.95;59.35;102177.34;5037662;28;20034;-86
2023/05/20 06:56:30;;;;;;;6.03;3.67;;;;;;;17.11;58.71;102173.38;5040897;28;20328;-86
2023/05/20 06:58:57;;;;;;;9.38;3.78;;;;;;;17.23;57.88;102158.91;5037865;28;20025;-85
2023/05/20 07:01:23;;;;;;;5.70;3.80;;;;;;;17.45;57.79;102167.84;5035462;28;20037;-85
2023/05/20 07:03:48;;;;;;;7.05;4.00;;;;;;;17.63;57.78;102168.97;5039532;28;20025;-85
2023/05/20 07:06:19;;;;;;;5.73;3.47;;;;;;;17.75;54.88;102177.81;5044267;28;20025;-86
2023/05/20 07:08:44;;;;;;;8.35;4.13;;;;;;;17.91;55.03;102169.31;5036459;28;20272;-86
2023/05/20 07:11:09;;;;;;;7.25;3.55;;;;;;;18.04;54.05;102166.41;5035854;28;20032;-85
2023/05/20 07:13:35;;;;;;;7.05;3.60;;;;;;;18.24;54.46;102172.72;5035057;28;20056;-85
2023/05/20 07:16:00;;;;;;;5.63;3.60;;;;;;;18.46;53.94;102167.13;5036717;28;20091;-84
2023/05/20 07:18:25;;;;;;;6.78;3.50;;;;;;;18.70;52.69;102160.53;5036790;28;20111;-85
2023/05/20 07:20:51;;;;;;;6.13;3.22;;;;;;;18.77;51.45;102160.81;5036342;28;20036;-85
2023/05/20 07:23:16;;;;;;;6.00;3.05;;;;;;;18.96;50.88;102154.66;5039187;28;20497;-83
2023/05/20 07:25:41;;;;;;;7.67;3.43;;;;;;;19.07;49.26;102156.34;5052530;28;20104;-85
2023/05/20 07:28:07;;;;;;;4.10;3.03;;;;;;;19.22;49.50;102136.94;5054944;28;20288;-83
2023/05/20 07:30:32;;;;;;;6.20;3.33;;;;;;;19.48;49.64;102149.78;5057570;28;20315;-84
2023/05/20 07:32:57;;;;;;;5.77;3.67;;;;;;;19.66;48.82;102143.69;5055031;28;20052;-84
2023/05/20 07:35:23;;;;;;;5.75;3.00;;;;;;;19.82;47.07;102153.88;5038819;28;20284;-85
2023/05/20 07:37:49;;;;;;;6.90;3.10;;;;;;;19.84;46.56;102143.81;5038507;28;20053;-85
2023/05/20 07:40:14;;;;;;;10.55;3.22;;;;;;;19.81;46.38;102136.00;5038657;28;20507;-84
2023/05/20 07:42:39;;;;;;;6.13;2.80;;;;;;;19.96;46.36;102135.38;5038438;28;20028;-84
2023/05/20 07:45:06;;;;;;;6.13;3.28;;;;;;;20.02;45.33;102135.78;5029591;28;20030;-84
2023/05/20 07:47:31;;;;;;;6.93;3.00;;;;;;;20.08;45.61;102125.22;5028821;28;20452;-84
2023/05/20 07:49:57;;;;;;;5.57;3.03;;;;;;;20.21;45.53;102140.25;5036540;28;20017;-84
2023/05/20 07:52:23;;;;;;;4.75;3.28;;;;;;;20.40;45.61;102136.59;5034705;28;20030;-84
2023/05/20 07:54:48;;;;;;;5.28;2.80;;;;;;;20.42;44.06;102134.59;5047108;28;20036;-84
2023/05/20 07:57:13;;;;;;;3.90;2.92;;;;;;;20.55;44.25;102142.31;5050324;28;20025;-84
2023/05/20 07:59:38;;;;;;;8.02;2.78;;;;;;;20.61;43.73;102130.91;5039773;28;20029;-83
2023/05/20 08:02:04;;;;;;;7.90;2.97;;;;;;;20.62;43.17;102124.53;5040447;28;20115;-83
2023/05/20 08:04:29;;;;;;;9.18;3.20;;;;;;;20.78;43.39;102129.28;5041417;28;20045;-84
2023/05/20 08:06:55;;;;;;;8.18;2.88;;;;;;;20.96;43.97;102121.19;5040462;28;20030;-84
2023/05/20 08:09:20;;;;;;;9.00;3.72;;;;;;;21.05;42.70;102125.66;5041562;28;20029;-83
2023/05/20 08:11:45;;;;;;;4.78;2.88;;;;;;;21.21;42.27;102141.97;5038881;28;20087;-83
2023/05/20 08:14:11;;;;;;;11.15;2.85;;;;;;;21.05;41.36;102126.50;5037214;28;20030;-84
2023/05/20 08:16:36;;;;;;;3.60;2.70;;;;;;;21.15;41.54;102126.41;5036647;28;20029;-84
2023/05/20 08:19:02;;;;;;;4.32;2.90;;;;;;;21.24;41.15;102113.81;5018601;28;20519;-84
2023/05/20 08:21:27;;;;;;;7.03;3.00;;;;;;;21.40;41.74;102116.66;5034537;28;20040;-84
2023/05/20 08:23:53;;;;;;;3.90;2.72;;;;;;;21.59;40.84;102117.47;5041380;28;20037;-83
2023/05/20 08:26:18;;;;;;;4.30;2.90;;;;;;;21.63;39.87;102113.44;5056069;28;20036;-83
2023/05/20 08:28:43;;;;;;;4.80;3.00;;;;;;;21.63;39.79;102126.94;5058221;28;20025;-83
2023/05/20 08:31:08;;;;;;;6.63;2.77;;;;;;;21.54;39.66;102109.84;5037767;28;20322;-83
2023/05/20 08:33:34;;;;;;;5.30;2.60;;;;;;;21.73;40.60;102108.78;5034431;28;20367;-84
2023/05/20 08:35:59;;;;;;;4.03;2.72;;;;;;;21.88;39.67;102109.00;5032639;28;20116;-84
2023/05/20 08:38:25;;;;;;;9.43;3.38;;;;;;;21.85;39.00;102103.94;5030943;28;20033;-84
2023/05/20 08:40:54;;;;;;;6.85;3.20;;;;;;;21.88;40.48;102100.88;5021065;28;20030;-84
2023/05/20 08:43:19;;;;;;;5.35;3.00;;;;;;;22.15;40.52;102102.53;5034142;28;20083;-83
2023/05/20 08:45:45;;;;;;;3.85;2.80;;;;;;;22.28;39.96;102091.28;5033142;28;20021;-84
2023/05/20 08:48:10;;;;;;;4.53;2.47;;;;;;;22.43;38.82;102086.09;5032961;28;20488;-84
2023/05/20 08:50:36;;;;;;;5.65;2.85;;;;;;;22.34;37.06;102101.44;5032897;28;20457;-84
2023/05/20 08:53:01;;;;;;;3.83;3.08;;;;;;;22.56;38.20;102076.63;5034574;28;20033;-85
2023/05/20 08:55:43;;;;;;;7.18;2.95;;;;;;;22.69;38.53;102090.53;5032956;28;20031;-85
2023/05/20 08:58:11;;;;;;;5.63;2.95;;;;;;;22.99;38.07;102101.72;5031236;28;20367;-83
2023/05/20 09:00:37;;;;;;;4.70;3.08;;;;;;;23.17;37.10;102088.03;5034669;28;20040;-83
2023/05/20 09:03:03;;;;;;;10.68;2.90;;;;;;;23.22;37.01;102096.50;5032299;28;20391;-83
2023/05/20 09:05:28;;;;;;;6.07;3.10;;;;;;;23.26;37.19;102093.28;5033832;28;20036;-84
2023/05/20 09:08:05;;;;;;;7.25;3.05;;;;;;;23.34;37.60;102088.84;5033770;28;20021;-85
2023/05/20 09:10:31;;;;;;;7.55;3.05;;;;;;;23.20;36.08;102071.41;5031684;28;20033;-85
2023/05/20 09:12:56;;;;;;;9.73;4.15;;;;;;;23.35;36.00;102082.41;5033280;28;20442;-85
2023/05/20 09:15:21;;;;;;;4.05;2.70;;;;;;;23.40;35.63;102075.47;5031710;28;20025;-84
2023/05/20 09:17:48;;;;;;;6.22;2.60;;;;;;;23.41;35.28;102071.72;5031411;28;20506;-84
2023/05/20 09:20:14;;;;;;;4.80;2.78;;;;;;;23.35;35.53;102085.97;5032754;28;20021;-84
2023/05/20 09:22:40;;;;;;;8.50;2.53;;;;;;;23.39;36.85;102065.63;5026719;28;20108;-84
2023/05/20 09:25:06;;;;;;;7.85;2.55;;;;;;;23.42;35.22;102072.56;5025191;28;20097;-86
2023/05/20 09:27:32;;;;;;;4.03;2.42;;;;;;;23.22;35.18;102077.53;5032870;28;20083;-86
2023/05/20 09:30:05;;;;;;;5.53;2.60;;;;;;;23.30;36.61;102058.53;5031221;28;20029;-84
2023/05/20 09:32:31;;;;;;;6.28;2.42;;;;;;;23.45;36.82;102069.53;5026128;28;20080;-85
2023/05/20 09:34:57;;;;;;;5.60;2.90;;;;;;;23.63;36.55;102064.72;5036259;28;20038;-85
2023/05/20 09:37:28;;;;;;;7.07;2.80;;;;;;;23.56;34.43;102062.88;5032649;28;20467;-85
2023/05/20 09:40:05;;;;;;;5.57;2.88;;;;;;;23.42;35.54;102067.16;5028689;28;20462;-85
2023/05/20 09:42:36;;;;;;;3.25;2.72;;;;;;;23.41;35.29;102073.59;5035400;28;20025;-86
2023/05/20 09:45:10;;;;;;;5.35;2.60;;;;;;;23.57;35.55;102078.97;5041206;28;20463;-86
2023/05/20 09:47:37;;;;;;;5.65;2.80;;;;;;;23.75;35.94;102070.63;5024715;28;20067;-85
2023/05/20 09:50:10;;;;;;;3.45;2.47;;;;;;;23.85;35.40;102064.16;5027959;28;20048;-84
2023/05/20 09:52:41;;;;;;;4.13;2.70;;;;;;;24.09;35.84;102074.91;5024533;28;20472;-84
2023/05/20 09:55:09;;;;;;;6.88;2.65;;;;;;;23.92;35.81;102060.56;5036370;28;20091;-84
2023/05/20 09:57:36;;;;;;;9.23;2.92;;;;;;;23.93;34.87;102075.84;5036259;28;20055;-85
2023/05/20 10:00:04;;;;;;;5.43;2.80;;;;;;;23.74;35.04;102068.09;5036180;28;20502;-85
2023/05/20 10:02:29;;;;;;;5.47;2.77;;;;;;;23.83;35.53;102067.03;5024674;28;20026;-85
2023/05/20 10:04:56;;;;;;;7.00;2.90;;;;;;;23.90;36.95;102064.47;5037412;28;20025;-85
2023/05/20 10:07:55;;;;;;;4.00;2.88;;;;;;;24.10;36.12;102054.03;5037077;28;20468;-85
2023/05/20 10:10:32;;;;;;;4.07;2.78;;;;;;;23.80;34.73;102060.09;5037406;28;20030;-85
2023/05/20 10:13:10;;;;;;;8.05;2.65;;;;;;;23.58;36.09;102021.00;5037729;28;20448;-85
2023/05/20 10:16:08;;;;;;;5.05;2.80;;;;;;;23.54;37.21;102035.94;5017377;28;20045;-85
2023/05/20 10:19:04;;;;;;;5.50;2.80;;;;;;;23.67;36.52;102042.69;5031118;28;20050;-86
2023/05/20 10:21:30;;;;;;;8.82;2.60;;;;;;;23.63;36.69;102042.16;5019345;28;20041;-85
2023/05/20 10:24:05;;;;;;;5.20;2.80;;;;;;;23.71;36.29;102044.00;5031535;28;20026;-84
2023/05/20 10:26:38;;;;;;;5.78;2.70;;;;;;;23.84;35.64;102036.19;5035997;28;20033;-84
2023/05/20 10:29:17;;;;;;;4.07;2.60;;;;;;;24.04;35.57;102023.03;5035385;28;20494;-84
2023/05/20 10:31:47;;;;;;;6.15;3.10;;;;;;;23.82;34.83;102025.50;5035929;28;20452;-85
2023/05/20 10:34:18;;;;;;;4.25;2.70;;;;;;;23.80;35.75;102023.97;5035643;28;20037;-85
2023/05/20 10:36:52;;;;;;;7.97;2.35;;;;;;;23.77;36.32;102038.72;5015423;28;20068;-86
2023/05/20 10:39:18;;;;;;;4.50;2.35;;;;;;;23.77;34.04;102011.59;5034224;28;20021;-84
2023/05/20 10:41:43;;;;;;;6.93;2.80;;;;;;;23.74;34.71;102016.53;5035737;28;20038;-84
2023/05/20 10:44:08;;;;;;;5.20;2.50;;;;;;;23.69;34.52;102011.63;5034274;28;20036;-85
2023/05/20 10:46:34;;;;;;;3.35;2.50;;;;;;;23.56;34.73;102017.59;5035678;28;20029;-85
2023/05/20 10:49:04;;;;;;;3.30;2.40;;;;;;;23.70;34.46;102021.47;5035241;28;20029;-85
2023/05/20 10:51:30;;;;;;;8.00;2.63;;;;;;;23.90;34.62;102012.91;5039122;28;20441;-84
2023/05/20 10:53:56;;;;;;;3.72;2.58;;;;;;;23.95;34.10;102013.25;5035343;28;20030;-84
2023/05/20 10:56:24;;;;;;;8.15;2.83;;;;;;;24.13;36.58;102008.41;5034067;28;20017;-84
2023/05/20 10:58:51;;;;;;;9.93;2.85;;;;;;;24.44;35.95;101999.34;5034487;28;20112;-84
2023/05/20 11:01:17;;;;;;;6.40;2.42;;;;;;;24.69;35.48;102008.19;5035434;28;20395;-83
2023/05/20 11:03:45;;;;;;;2.40;2.20;;;;;;;24.73;33.54;102009.50;5035907;28;20029;-84
2023/05/20 11:06:15;;;;;;;5.03;2.70;;;;;;;24.80;32.99;102003.31;5034080;28;20080;-84
2023/05/20 11:08:40;;;;;;;5.65;2.45;;;;;;;24.79;33.51;101997.06;5035250;28;20283;-84
2023/05/20 11:11:06;;;;;;;3.72;2.22;;;;;;;24.80;33.11;101996.03;5035576;28;20030;-84
2023/05/20 11:13:32;;;;;;;5.35;2.40;;;;;;;24.84;32.97;101996.50;5034898;28;20018;-84
2023/05/20 11:15:58;;;;;;;2.30;2.10;;;;;;;24.79;34.55;101985.34;5035293;28;20029;-84
2023/05/20 11:18:28;;;;;;;4.95;2.10;;;;;;;24.63;33.24;101989.91;5034879;28;20057;-83
2023/05/20 11:20:55;;;;;;;4.00;2.40;;;;;;;24.37;34.03;101990.25;5035920;28;20044;-85